Archival Weather

Beaver Creek

Beaver Creek, Yukon (CYXQ)

Report from: Thursday, December 7, 2023 12:00 PM PST
Current time: Tuesday, April 23, 2024 2:00 AM PDT

Current weather – Weather history – Daily summaries
Weather forecast

Temperature-16.0°C (3.2°F)
Dew point-19.0°C (-2.2°F)
Winds 2 kts (1 m/s, 2.3 mph) Vrb
Winds variableWinds variable
Visibility20 mi. (32.2 km)
Clouds Ceiling: Overcast 7,000 ft. (2,134 m)
Altimeter29.57 in.Hg (1001 mB)
Relative humidity78 %
Density altitude-3,716 ft. (-1,133 m)
Sea-level pressure100.8 kPa (1008 mB, 29.76 in.Hg)
Flight conditions Visual Meteorological Conditions
Raw dataCYXQ 072000Z VRB02KT 20SM OVC070 M16/M19 A2957 RMK AC8 SLP078
An error has occurred. This application may no longer respond until reloaded. Reload 🗙